sensor_id;sensor_type;location;lat;lon;timestamp;P1;durP1;ratioP1;P2;durP2;ratioP2
59161;SDS011;44942;48.936;8.260;2023-04-02T00:00:26;3.47;;;2.40;;
59161;SDS011;44942;48.936;8.260;2023-04-02T00:05:28;3.10;;;2.20;;
59161;SDS011;44942;48.936;8.260;2023-04-02T00:10:37;4.90;;;2.33;;
59161;SDS011;44942;48.936;8.260;2023-04-02T00:15:46;4.75;;;2.30;;
59161;SDS011;44942;48.936;8.260;2023-04-02T00:20:59;3.85;;;2.20;;
59161;SDS011;44942;48.936;8.260;2023-04-02T00:26:28;3.85;;;2.40;;
59161;SDS011;44942;48.936;8.260;2023-04-02T00:31:36;4.63;;;2.30;;
59161;SDS011;44942;48.936;8.260;2023-04-02T00:36:41;2.72;;;2.00;;
59161;SDS011;44942;48.936;8.260;2023-04-02T00:41:43;3.30;;;2.15;;
59161;SDS011;44942;48.936;8.260;2023-04-02T00:46:46;3.72;;;2.30;;
59161;SDS011;44942;48.936;8.260;2023-04-02T00:51:50;3.15;;;2.25;;
59161;SDS011;44942;48.936;8.260;2023-04-02T00:56:55;3.10;;;2.40;;
59161;SDS011;44942;48.936;8.260;2023-04-02T01:02:18;3.50;;;2.30;;
59161;SDS011;44942;48.936;8.260;2023-04-02T01:13:03;3.05;;;1.83;;
59161;SDS011;44942;48.936;8.260;2023-04-02T01:18:22;2.95;;;2.15;;
59161;SDS011;44942;48.936;8.260;2023-04-02T01:23:48;2.72;;;2.30;;
59161;SDS011;44942;48.936;8.260;2023-04-02T01:34:05;2.03;;;1.60;;
59161;SDS011;44942;48.936;8.260;2023-04-02T01:39:26;2.30;;;1.67;;
59161;SDS011;44942;48.936;8.260;2023-04-02T01:45:00;3.45;;;1.70;;
59161;SDS011;44942;48.936;8.260;2023-04-02T01:50:25;2.72;;;1.50;;
59161;SDS011;44942;48.936;8.260;2023-04-02T02:06:01;3.55;;;1.70;;
59161;SDS011;44942;48.936;8.260;2023-04-02T02:11:06;2.40;;;1.60;;
59161;SDS011;44942;48.936;8.260;2023-04-02T02:16:10;2.65;;;1.70;;
59161;SDS011;44942;48.936;8.260;2023-04-02T02:21:27;2.35;;;1.80;;
59161;SDS011;44942;48.936;8.260;2023-04-02T02:26:36;2.13;;;1.67;;
59161;SDS011;44942;48.936;8.260;2023-04-02T02:31:38;2.35;;;1.58;;
59161;SDS011;44942;48.936;8.260;2023-04-02T02:36:50;2.08;;;1.70;;
59161;SDS011;44942;48.936;8.260;2023-04-02T02:41:56;2.30;;;1.58;;
59161;SDS011;44942;48.936;8.260;2023-04-02T02:47:03;1.67;;;1.58;;
59161;SDS011;44942;48.936;8.260;2023-04-02T02:57:10;2.03;;;1.67;;
59161;SDS011;44942;48.936;8.260;2023-04-02T03:02:13;2.20;;;1.60;;
59161;SDS011;44942;48.936;8.260;2023-04-02T03:07:15;2.28;;;1.60;;
59161;SDS011;44942;48.936;8.260;2023-04-02T03:12:31;1.90;;;1.48;;
59161;SDS011;44942;48.936;8.260;2023-04-02T03:23:17;2.88;;;1.90;;
59161;SDS011;44942;48.936;8.260;2023-04-02T03:28:32;1.50;;;1.20;;
59161;SDS011;44942;48.936;8.260;2023-04-02T03:34:41;2.03;;;1.55;;
59161;SDS011;44942;48.936;8.260;2023-04-02T03:39:59;2.33;;;1.20;;
59161;SDS011;44942;48.936;8.260;2023-04-02T03:44:43;2.63;;;1.58;;
59161;SDS011;44942;48.936;8.260;2023-04-02T03:49:56;1.67;;;1.27;;
59161;SDS011;44942;48.936;8.260;2023-04-02T03:55:21;2.33;;;1.50;;
59161;SDS011;44942;48.936;8.260;2023-04-02T04:05:57;1.75;;;1.30;;
59161;SDS011;44942;48.936;8.260;2023-04-02T04:11:18;1.92;;;1.60;;
59161;SDS011;44942;48.936;8.260;2023-04-02T04:16:38;1.92;;;1.60;;
59161;SDS011;44942;48.936;8.260;2023-04-02T04:21:46;1.63;;;1.27;;
59161;SDS011;44942;48.936;8.260;2023-04-02T04:26:51;1.60;;;1.50;;
59161;SDS011;44942;48.936;8.260;2023-04-02T04:31:57;2.60;;;1.40;;
59161;SDS011;44942;48.936;8.260;2023-04-02T04:37:28;2.58;;;1.58;;
59161;SDS011;44942;48.936;8.260;2023-04-02T04:42:33;1.98;;;1.50;;
59161;SDS011;44942;48.936;8.260;2023-04-02T04:47:37;1.73;;;1.63;;
59161;SDS011;44942;48.936;8.260;2023-04-02T04:52:41;1.83;;;1.48;;
59161;SDS011;44942;48.936;8.260;2023-04-02T04:57:43;1.40;;;1.30;;
59161;SDS011;44942;48.936;8.260;2023-04-02T05:02:51;1.88;;;1.50;;
59161;SDS011;44942;48.936;8.260;2023-04-02T05:08:18;1.63;;;1.48;;
59161;SDS011;44942;48.936;8.260;2023-04-02T05:13:38;2.10;;;1.42;;
59161;SDS011;44942;48.936;8.260;2023-04-02T05:19:30;1.48;;;1.20;;
59161;SDS011;44942;48.936;8.260;2023-04-02T05:24:32;1.90;;;1.52;;
59161;SDS011;44942;48.936;8.260;2023-04-02T05:29:40;1.55;;;1.23;;
59161;SDS011;44942;48.936;8.260;2023-04-02T05:34:44;1.73;;;1.30;;
59161;SDS011;44942;48.936;8.260;2023-04-02T05:39:53;1.40;;;1.25;;
59161;SDS011;44942;48.936;8.260;2023-04-02T05:50:29;1.30;;;1.17;;
59161;SDS011;44942;48.936;8.260;2023-04-02T06:00:50;1.35;;;1.10;;
59161;SDS011;44942;48.936;8.260;2023-04-02T06:06:11;1.20;;;1.10;;
59161;SDS011;44942;48.936;8.260;2023-04-02T06:11:19;3.72;;;1.20;;
59161;SDS011;44942;48.936;8.260;2023-04-02T06:16:27;2.53;;;1.15;;
59161;SDS011;44942;48.936;8.260;2023-04-02T06:21:30;3.45;;;1.50;;
59161;SDS011;44942;48.936;8.260;2023-04-02T06:26:31;1.35;;;1.05;;
59161;SDS011;44942;48.936;8.260;2023-04-02T06:31:37;1.58;;;1.10;;
59161;SDS011;44942;48.936;8.260;2023-04-02T06:36:46;1.60;;;1.10;;
59161;SDS011;44942;48.936;8.260;2023-04-02T06:41:56;3.15;;;1.20;;
59161;SDS011;44942;48.936;8.260;2023-04-02T06:47:12;1.48;;;1.05;;
59161;SDS011;44942;48.936;8.260;2023-04-02T06:52:24;1.45;;;1.23;;
59161;SDS011;44942;48.936;8.260;2023-04-02T06:57:33;2.17;;;1.20;;
59161;SDS011;44942;48.936;8.260;2023-04-02T07:02:36;1.65;;;1.20;;
59161;SDS011;44942;48.936;8.260;2023-04-02T07:07:39;1.77;;;1.25;;
59161;SDS011;44942;48.936;8.260;2023-04-02T07:12:40;1.33;;;1.13;;
59161;SDS011;44942;48.936;8.260;2023-04-02T07:17:41;1.67;;;1.20;;
59161;SDS011;44942;48.936;8.260;2023-04-02T07:22:45;2.03;;;1.30;;
59161;SDS011;44942;48.936;8.260;2023-04-02T07:27:46;2.00;;;1.40;;
59161;SDS011;44942;48.936;8.260;2023-04-02T07:32:47;1.25;;;1.10;;
59161;SDS011;44942;48.936;8.260;2023-04-02T07:37:48;1.58;;;1.38;;
59161;SDS011;44942;48.936;8.260;2023-04-02T07:42:48;1.47;;;1.37;;
59161;SDS011;44942;48.936;8.260;2023-04-02T07:47:49;2.70;;;1.20;;
59161;SDS011;44942;48.936;8.260;2023-04-02T07:52:50;9.77;;;1.43;;
59161;SDS011;44942;48.936;8.260;2023-04-02T07:57:52;6.28;;;1.30;;
59161;SDS011;44942;48.936;8.260;2023-04-02T08:02:54;6.95;;;1.30;;
59161;SDS011;44942;48.936;8.260;2023-04-02T08:07:55;6.50;;;1.30;;
59161;SDS011;44942;48.936;8.260;2023-04-02T08:12:56;5.25;;;2.53;;
59161;SDS011;44942;48.936;8.260;2023-04-02T08:17:56;6.70;;;2.97;;
59161;SDS011;44942;48.936;8.260;2023-04-02T08:22:57;6.80;;;3.63;;
59161;SDS011;44942;48.936;8.260;2023-04-02T08:27:59;9.25;;;4.50;;
59161;SDS011;44942;48.936;8.260;2023-04-02T08:33:01;8.00;;;4.57;;
59161;SDS011;44942;48.936;8.260;2023-04-02T08:38:02;5.30;;;3.70;;
59161;SDS011;44942;48.936;8.260;2023-04-02T08:48:33;8.07;;;4.93;;
59161;SDS011;44942;48.936;8.260;2023-04-02T08:53:37;2.85;;;1.90;;
59161;SDS011;44942;48.936;8.260;2023-04-02T09:08:43;9.18;;;5.30;;
59161;SDS011;44942;48.936;8.260;2023-04-02T09:13:47;10.55;;;5.43;;
59161;SDS011;44942;48.936;8.260;2023-04-02T09:18:59;10.77;;;5.80;;
59161;SDS011;44942;48.936;8.260;2023-04-02T09:34:25;14.32;;;5.78;;
59161;SDS011;44942;48.936;8.260;2023-04-02T09:39:28;11.10;;;5.32;;
59161;SDS011;44942;48.936;8.260;2023-04-02T09:44:29;12.50;;;5.40;;
59161;SDS011;44942;48.936;8.260;2023-04-02T09:49:38;11.02;;;5.45;;
59161;SDS011;44942;48.936;8.260;2023-04-02T09:54:39;10.82;;;5.50;;
59161;SDS011;44942;48.936;8.260;2023-04-02T09:59:43;12.48;;;5.28;;
59161;SDS011;44942;48.936;8.260;2023-04-02T10:04:45;10.10;;;5.63;;
59161;SDS011;44942;48.936;8.260;2023-04-02T10:09:47;15.27;;;5.47;;
59161;SDS011;44942;48.936;8.260;2023-04-02T10:14:57;19.77;;;5.57;;
59161;SDS011;44942;48.936;8.260;2023-04-02T10:20:21;10.95;;;5.38;;
59161;SDS011;44942;48.936;8.260;2023-04-02T10:25:24;14.43;;;5.40;;
59161;SDS011;44942;48.936;8.260;2023-04-02T10:35:39;7.93;;;4.80;;
59161;SDS011;44942;48.936;8.260;2023-04-02T10:52:03;9.70;;;4.72;;
59161;SDS011;44942;48.936;8.260;2023-04-02T11:07:56;9.32;;;4.60;;
59161;SDS011;44942;48.936;8.260;2023-04-02T11:18:26;9.23;;;4.30;;
59161;SDS011;44942;48.936;8.260;2023-04-02T11:23:37;7.50;;;4.20;;
59161;SDS011;44942;48.936;8.260;2023-04-02T11:39:43;7.43;;;3.20;;
59161;SDS011;44942;48.936;8.260;2023-04-02T11:44:44;6.18;;;3.20;;
59161;SDS011;44942;48.936;8.260;2023-04-02T11:54:58;5.05;;;3.42;;
59161;SDS011;44942;48.936;8.260;2023-04-02T12:00:11;9.95;;;3.83;;
59161;SDS011;44942;48.936;8.260;2023-04-02T12:05:26;6.28;;;3.50;;
59161;SDS011;44942;48.936;8.260;2023-04-02T12:10:49;11.82;;;3.65;;
59161;SDS011;44942;48.936;8.260;2023-04-02T12:15:55;11.93;;;3.30;;
59161;SDS011;44942;48.936;8.260;2023-04-02T12:20:57;14.35;;;4.10;;
59161;SDS011;44942;48.936;8.260;2023-04-02T12:26:05;21.00;;;4.25;;
59161;SDS011;44942;48.936;8.260;2023-04-02T12:31:22;12.33;;;2.93;;
59161;SDS011;44942;48.936;8.260;2023-04-02T12:36:24;7.88;;;2.40;;
59161;SDS011;44942;48.936;8.260;2023-04-02T12:41:31;8.27;;;1.87;;
59161;SDS011;44942;48.936;8.260;2023-04-02T12:46:35;5.27;;;1.30;;
59161;SDS011;44942;48.936;8.260;2023-04-02T12:51:37;8.27;;;1.60;;
59161;SDS011;44942;48.936;8.260;2023-04-02T12:56:38;5.85;;;1.70;;
59161;SDS011;44942;48.936;8.260;2023-04-02T13:01:49;7.17;;;2.37;;
59161;SDS011;44942;48.936;8.260;2023-04-02T13:06:55;6.18;;;2.30;;
59161;SDS011;44942;48.936;8.260;2023-04-02T13:11:56;9.63;;;2.55;;
59161;SDS011;44942;48.936;8.260;2023-04-02T13:16:57;8.35;;;2.70;;
59161;SDS011;44942;48.936;8.260;2023-04-02T13:21:59;3.07;;;2.40;;
59161;SDS011;44942;48.936;8.260;2023-04-02T13:27:01;4.22;;;2.20;;
59161;SDS011;44942;48.936;8.260;2023-04-02T13:32:04;4.07;;;2.60;;
59161;SDS011;44942;48.936;8.260;2023-04-02T13:37:11;3.35;;;2.42;;
59161;SDS011;44942;48.936;8.260;2023-04-02T13:42:12;6.40;;;2.50;;
59161;SDS011;44942;48.936;8.260;2023-04-02T13:47:13;3.35;;;2.00;;
59161;SDS011;44942;48.936;8.260;2023-04-02T13:52:13;3.25;;;2.13;;
59161;SDS011;44942;48.936;8.260;2023-04-02T13:57:16;4.30;;;2.38;;
59161;SDS011;44942;48.936;8.260;2023-04-02T14:02:19;9.48;;;2.40;;
59161;SDS011;44942;48.936;8.260;2023-04-02T14:12:56;3.85;;;2.17;;
59161;SDS011;44942;48.936;8.260;2023-04-02T14:23:32;3.65;;;2.08;;
59161;SDS011;44942;48.936;8.260;2023-04-02T14:28:56;3.90;;;1.98;;
59161;SDS011;44942;48.936;8.260;2023-04-02T14:34:02;5.70;;;2.22;;
59161;SDS011;44942;48.936;8.260;2023-04-02T14:39:22;3.05;;;2.05;;
59161;SDS011;44942;48.936;8.260;2023-04-02T14:44:37;2.22;;;1.92;;
59161;SDS011;44942;48.936;8.260;2023-04-02T14:49:42;9.35;;;3.83;;
59161;SDS011;44942;48.936;8.260;2023-04-02T14:54:52;61.38;;;16.67;;
59161;SDS011;44942;48.936;8.260;2023-04-02T15:00:07;68.57;;;18.80;;
59161;SDS011;44942;48.936;8.260;2023-04-02T15:05:23;62.05;;;16.65;;
59161;SDS011;44942;48.936;8.260;2023-04-02T15:25:49;53.75;;;15.90;;
59161;SDS011;44942;48.936;8.260;2023-04-02T15:31:14;49.08;;;16.25;;
59161;SDS011;44942;48.936;8.260;2023-04-02T15:36:31;49.72;;;15.75;;
59161;SDS011;44942;48.936;8.260;2023-04-02T15:42:07;55.20;;;15.38;;
59161;SDS011;44942;48.936;8.260;2023-04-02T15:47:20;51.38;;;17.23;;
59161;SDS011;44942;48.936;8.260;2023-04-02T15:52:35;45.20;;;15.50;;
59161;SDS011;44942;48.936;8.260;2023-04-02T16:09:01;42.60;;;14.23;;
59161;SDS011;44942;48.936;8.260;2023-04-02T16:14:19;42.63;;;15.77;;
59161;SDS011;44942;48.936;8.260;2023-04-02T16:19:26;31.52;;;11.68;;
59161;SDS011;44942;48.936;8.260;2023-04-02T16:24:33;40.70;;;15.60;;
59161;SDS011;44942;48.936;8.260;2023-04-02T16:29:39;38.93;;;14.73;;
59161;SDS011;44942;48.936;8.260;2023-04-02T16:34:58;46.03;;;15.07;;
59161;SDS011;44942;48.936;8.260;2023-04-02T16:45:36;39.00;;;14.27;;
59161;SDS011;44942;48.936;8.260;2023-04-02T16:56:17;34.78;;;12.43;;
59161;SDS011;44942;48.936;8.260;2023-04-02T17:01:30;35.08;;;11.50;;
59161;SDS011;44942;48.936;8.260;2023-04-02T17:06:47;29.67;;;11.93;;
59161;SDS011;44942;48.936;8.260;2023-04-02T17:12:22;35.47;;;12.15;;
59161;SDS011;44942;48.936;8.260;2023-04-02T17:17:42;30.85;;;11.48;;
59161;SDS011;44942;48.936;8.260;2023-04-02T17:22:44;26.10;;;10.85;;
59161;SDS011;44942;48.936;8.260;2023-04-02T17:27:47;25.23;;;10.68;;
59161;SDS011;44942;48.936;8.260;2023-04-02T17:32:51;28.38;;;10.25;;
59161;SDS011;44942;48.936;8.260;2023-04-02T17:58:55;23.93;;;9.37;;
59161;SDS011;44942;48.936;8.260;2023-04-02T18:09:51;21.00;;;8.80;;
59161;SDS011;44942;48.936;8.260;2023-04-02T18:26:22;17.85;;;7.68;;
59161;SDS011;44942;48.936;8.260;2023-04-02T18:36:59;20.73;;;7.82;;
59161;SDS011;44942;48.936;8.260;2023-04-02T18:42:08;17.67;;;7.68;;
59161;SDS011;44942;48.936;8.260;2023-04-02T18:52:24;16.77;;;7.22;;
59161;SDS011;44942;48.936;8.260;2023-04-02T18:57:27;18.20;;;7.43;;
59161;SDS011;44942;48.936;8.260;2023-04-02T19:07:43;20.80;;;6.45;;
59161;SDS011;44942;48.936;8.260;2023-04-02T19:12:46;20.52;;;7.03;;
59161;SDS011;44942;48.936;8.260;2023-04-02T19:17:53;15.00;;;6.60;;
59161;SDS011;44942;48.936;8.260;2023-04-02T19:33:48;12.43;;;6.05;;
59161;SDS011;44942;48.936;8.260;2023-04-02T19:43:57;14.02;;;6.05;;
59161;SDS011;44942;48.936;8.260;2023-04-02T19:54:12;11.48;;;5.53;;
59161;SDS011;44942;48.936;8.260;2023-04-02T19:59:12;11.60;;;5.40;;
59161;SDS011;44942;48.936;8.260;2023-04-02T20:04:13;10.40;;;5.50;;
59161;SDS011;44942;48.936;8.260;2023-04-02T20:09:14;10.82;;;5.63;;
59161;SDS011;44942;48.936;8.260;2023-04-02T20:14:15;11.57;;;5.50;;
59161;SDS011;44942;48.936;8.260;2023-04-02T20:19:15;11.50;;;5.33;;
59161;SDS011;44942;48.936;8.260;2023-04-02T20:24:16;10.80;;;5.30;;
59161;SDS011;44942;48.936;8.260;2023-04-02T20:29:17;8.90;;;4.90;;
59161;SDS011;44942;48.936;8.260;2023-04-02T20:34:17;9.20;;;4.93;;
59161;SDS011;44942;48.936;8.260;2023-04-02T20:39:18;11.77;;;5.43;;
59161;SDS011;44942;48.936;8.260;2023-04-02T20:44:19;9.52;;;4.88;;
59161;SDS011;44942;48.936;8.260;2023-04-02T20:49:20;9.63;;;4.78;;
59161;SDS011;44942;48.936;8.260;2023-04-02T20:54:21;10.77;;;4.97;;
59161;SDS011;44942;48.936;8.260;2023-04-02T20:59:24;7.72;;;4.18;;
59161;SDS011;44942;48.936;8.260;2023-04-02T21:04:26;8.23;;;3.70;;
59161;SDS011;44942;48.936;8.260;2023-04-02T21:09:27;8.23;;;4.22;;
59161;SDS011;44942;48.936;8.260;2023-04-02T21:14:28;9.87;;;4.40;;
59161;SDS011;44942;48.936;8.260;2023-04-02T21:19:34;8.93;;;4.60;;
59161;SDS011;44942;48.936;8.260;2023-04-02T21:24:35;8.40;;;4.57;;
59161;SDS011;44942;48.936;8.260;2023-04-02T21:29:35;7.13;;;4.40;;
59161;SDS011;44942;48.936;8.260;2023-04-02T21:34:36;7.73;;;4.10;;
59161;SDS011;44942;48.936;8.260;2023-04-02T21:39:36;7.97;;;4.03;;
59161;SDS011;44942;48.936;8.260;2023-04-02T21:44:37;9.20;;;4.63;;
59161;SDS011;44942;48.936;8.260;2023-04-02T21:49:37;7.73;;;4.57;;
59161;SDS011;44942;48.936;8.260;2023-04-02T21:54:38;9.37;;;4.17;;
59161;SDS011;44942;48.936;8.260;2023-04-02T21:59:38;8.80;;;4.20;;
59161;SDS011;44942;48.936;8.260;2023-04-02T22:04:39;7.63;;;4.00;;
59161;SDS011;44942;48.936;8.260;2023-04-02T22:09:40;7.10;;;4.33;;
59161;SDS011;44942;48.936;8.260;2023-04-02T22:14:40;8.33;;;4.67;;
59161;SDS011;44942;48.936;8.260;2023-04-02T22:19:41;7.47;;;3.90;;
59161;SDS011;44942;48.936;8.260;2023-04-02T22:24:41;6.03;;;3.97;;
59161;SDS011;44942;48.936;8.260;2023-04-02T22:29:42;8.20;;;4.37;;
59161;SDS011;44942;48.936;8.260;2023-04-02T22:34:42;6.00;;;4.07;;
59161;SDS011;44942;48.936;8.260;2023-04-02T22:39:44;6.07;;;3.35;;
59161;SDS011;44942;48.936;8.260;2023-04-02T22:44:45;4.20;;;3.10;;
59161;SDS011;44942;48.936;8.260;2023-04-02T22:49:45;6.10;;;3.47;;
59161;SDS011;44942;48.936;8.260;2023-04-02T22:54:46;5.50;;;3.13;;
59161;SDS011;44942;48.936;8.260;2023-04-02T22:59:48;5.30;;;3.28;;
59161;SDS011;44942;48.936;8.260;2023-04-02T23:04:49;4.67;;;3.50;;
59161;SDS011;44942;48.936;8.260;2023-04-02T23:09:50;5.70;;;3.73;;
59161;SDS011;44942;48.936;8.260;2023-04-02T23:14:50;4.40;;;3.47;;
59161;SDS011;44942;48.936;8.260;2023-04-02T23:19:51;6.07;;;3.70;;
59161;SDS011;44942;48.936;8.260;2023-04-02T23:24:52;6.07;;;3.77;;
59161;SDS011;44942;48.936;8.260;2023-04-02T23:29:53;5.78;;;3.55;;
59161;SDS011;44942;48.936;8.260;2023-04-02T23:34:54;5.93;;;3.80;;
59161;SDS011;44942;48.936;8.260;2023-04-02T23:39:54;4.50;;;3.17;;
59161;SDS011;44942;48.936;8.260;2023-04-02T23:44:55;3.93;;;2.90;;
59161;SDS011;44942;48.936;8.260;2023-04-02T23:49:55;3.77;;;2.87;;
59161;SDS011;44942;48.936;8.260;2023-04-02T23:54:56;5.07;;;3.37;;
59161;SDS011;44942;48.936;8.260;2023-04-02T23:59:56;4.33;;;3.00;;
